sensor_id;sensor_type;location;lat;lon;timestamp;P1;durP1;ratioP1;P2;durP2;ratioP2
77678;SDS011;66835;49.478;10.724;2024-02-26T00:02:01;12.63;;;5.97;;
77678;SDS011;66835;49.478;10.724;2024-02-26T00:04:27;9.23;;;5.33;;
77678;SDS011;66835;49.478;10.724;2024-02-26T00:06:52;9.38;;;6.10;;
77678;SDS011;66835;49.478;10.724;2024-02-26T00:09:19;11.32;;;5.15;;
77678;SDS011;66835;49.478;10.724;2024-02-26T00:11:46;11.90;;;6.43;;
77678;SDS011;66835;49.478;10.724;2024-02-26T00:14:11;10.32;;;5.10;;
77678;SDS011;66835;49.478;10.724;2024-02-26T00:16:39;10.38;;;5.05;;
77678;SDS011;66835;49.478;10.724;2024-02-26T00:19:05;11.23;;;5.10;;
77678;SDS011;66835;49.478;10.724;2024-02-26T00:21:30;10.03;;;5.57;;
77678;SDS011;66835;49.478;10.724;2024-02-26T00:23:55;12.00;;;5.33;;
77678;SDS011;66835;49.478;10.724;2024-02-26T00:26:21;9.70;;;4.90;;
77678;SDS011;66835;49.478;10.724;2024-02-26T00:28:47;10.63;;;5.67;;
77678;SDS011;66835;49.478;10.724;2024-02-26T00:31:13;12.63;;;5.10;;
77678;SDS011;66835;49.478;10.724;2024-02-26T00:33:38;10.18;;;5.30;;
77678;SDS011;66835;49.478;10.724;2024-02-26T00:36:04;9.48;;;5.13;;
77678;SDS011;66835;49.478;10.724;2024-02-26T00:38:30;11.10;;;5.72;;
77678;SDS011;66835;49.478;10.724;2024-02-26T00:40:55;8.88;;;5.30;;
77678;SDS011;66835;49.478;10.724;2024-02-26T00:43:21;9.30;;;4.90;;
77678;SDS011;66835;49.478;10.724;2024-02-26T00:45:47;10.13;;;5.45;;
77678;SDS011;66835;49.478;10.724;2024-02-26T00:48:13;13.98;;;6.03;;
77678;SDS011;66835;49.478;10.724;2024-02-26T00:50:38;10.25;;;6.00;;
77678;SDS011;66835;49.478;10.724;2024-02-26T00:53:04;10.85;;;6.15;;
77678;SDS011;66835;49.478;10.724;2024-02-26T00:55:29;12.20;;;6.68;;
77678;SDS011;66835;49.478;10.724;2024-02-26T00:57:55;10.23;;;5.60;;
77678;SDS011;66835;49.478;10.724;2024-02-26T01:00:20;11.70;;;5.28;;
77678;SDS011;66835;49.478;10.724;2024-02-26T01:02:47;8.73;;;4.88;;
77678;SDS011;66835;49.478;10.724;2024-02-26T01:05:12;9.50;;;5.93;;
77678;SDS011;66835;49.478;10.724;2024-02-26T01:07:38;8.98;;;5.22;;
77678;SDS011;66835;49.478;10.724;2024-02-26T01:10:05;12.77;;;5.97;;
77678;SDS011;66835;49.478;10.724;2024-02-26T01:12:31;9.85;;;5.75;;
77678;SDS011;66835;49.478;10.724;2024-02-26T01:14:56;11.73;;;5.72;;
77678;SDS011;66835;49.478;10.724;2024-02-26T01:17:21;15.45;;;6.55;;
77678;SDS011;66835;49.478;10.724;2024-02-26T01:19:48;10.17;;;5.30;;
77678;SDS011;66835;49.478;10.724;2024-02-26T01:22:14;13.75;;;6.50;;
77678;SDS011;66835;49.478;10.724;2024-02-26T01:24:39;14.17;;;6.90;;
77678;SDS011;66835;49.478;10.724;2024-02-26T01:27:04;10.68;;;6.38;;
77678;SDS011;66835;49.478;10.724;2024-02-26T01:29:30;10.57;;;6.30;;
77678;SDS011;66835;49.478;10.724;2024-02-26T01:31:55;11.93;;;6.95;;
77678;SDS011;66835;49.478;10.724;2024-02-26T01:34:21;10.80;;;5.88;;
77678;SDS011;66835;49.478;10.724;2024-02-26T01:36:48;10.48;;;5.35;;
77678;SDS011;66835;49.478;10.724;2024-02-26T01:39:13;12.15;;;5.65;;
77678;SDS011;66835;49.478;10.724;2024-02-26T01:41:38;9.98;;;6.35;;
77678;SDS011;66835;49.478;10.724;2024-02-26T01:44:04;11.65;;;6.20;;
77678;SDS011;66835;49.478;10.724;2024-02-26T01:46:30;9.90;;;5.22;;
77678;SDS011;66835;49.478;10.724;2024-02-26T01:48:56;13.48;;;5.90;;
77678;SDS011;66835;49.478;10.724;2024-02-26T01:51:21;13.53;;;6.47;;
77678;SDS011;66835;49.478;10.724;2024-02-26T01:53:49;12.88;;;6.28;;
77678;SDS011;66835;49.478;10.724;2024-02-26T01:56:14;10.60;;;5.60;;
77678;SDS011;66835;49.478;10.724;2024-02-26T01:58:40;9.40;;;4.88;;
77678;SDS011;66835;49.478;10.724;2024-02-26T02:01:06;9.38;;;5.22;;
77678;SDS011;66835;49.478;10.724;2024-02-26T02:03:32;12.77;;;5.97;;
77678;SDS011;66835;49.478;10.724;2024-02-26T02:05:58;9.73;;;5.32;;
77678;SDS011;66835;49.478;10.724;2024-02-26T02:08:23;10.67;;;5.47;;
77678;SDS011;66835;49.478;10.724;2024-02-26T02:10:50;9.23;;;5.05;;
77678;SDS011;66835;49.478;10.724;2024-02-26T02:13:16;11.52;;;6.20;;
77678;SDS011;66835;49.478;10.724;2024-02-26T02:15:41;11.95;;;5.35;;
77678;SDS011;66835;49.478;10.724;2024-02-26T02:18:07;11.30;;;5.97;;
77678;SDS011;66835;49.478;10.724;2024-02-26T02:20:34;12.65;;;5.90;;
77678;SDS011;66835;49.478;10.724;2024-02-26T02:22:59;12.65;;;5.65;;
77678;SDS011;66835;49.478;10.724;2024-02-26T02:25:25;11.18;;;5.68;;
77678;SDS011;66835;49.478;10.724;2024-02-26T02:27:50;12.45;;;6.85;;
77678;SDS011;66835;49.478;10.724;2024-02-26T02:30:17;13.40;;;7.35;;
77678;SDS011;66835;49.478;10.724;2024-02-26T02:32:42;11.23;;;5.65;;
77678;SDS011;66835;49.478;10.724;2024-02-26T02:35:08;13.68;;;6.18;;
77678;SDS011;66835;49.478;10.724;2024-02-26T02:37:35;12.30;;;6.20;;
77678;SDS011;66835;49.478;10.724;2024-02-26T02:40:00;12.43;;;5.85;;
77678;SDS011;66835;49.478;10.724;2024-02-26T02:42:25;12.40;;;6.13;;
77678;SDS011;66835;49.478;10.724;2024-02-26T02:44:51;12.32;;;6.50;;
77678;SDS011;66835;49.478;10.724;2024-02-26T02:47:16;11.90;;;6.10;;
77678;SDS011;66835;49.478;10.724;2024-02-26T02:49:42;16.60;;;7.10;;
77678;SDS011;66835;49.478;10.724;2024-02-26T02:52:07;12.20;;;6.37;;
77678;SDS011;66835;49.478;10.724;2024-02-26T02:54:34;11.43;;;5.65;;
77678;SDS011;66835;49.478;10.724;2024-02-26T02:57:00;11.20;;;5.93;;
77678;SDS011;66835;49.478;10.724;2024-02-26T02:59:26;12.20;;;6.38;;
77678;SDS011;66835;49.478;10.724;2024-02-26T03:01:51;12.80;;;6.43;;
77678;SDS011;66835;49.478;10.724;2024-02-26T03:04:17;11.35;;;6.88;;
77678;SDS011;66835;49.478;10.724;2024-02-26T03:06:42;12.30;;;5.65;;
77678;SDS011;66835;49.478;10.724;2024-02-26T03:09:07;10.73;;;6.07;;
77678;SDS011;66835;49.478;10.724;2024-02-26T03:11:34;11.77;;;5.63;;
77678;SDS011;66835;49.478;10.724;2024-02-26T03:13:59;12.90;;;6.05;;
77678;SDS011;66835;49.478;10.724;2024-02-26T03:16:25;10.75;;;5.85;;
77678;SDS011;66835;49.478;10.724;2024-02-26T03:18:50;11.35;;;6.18;;
77678;SDS011;66835;49.478;10.724;2024-02-26T03:21:16;12.50;;;6.30;;
77678;SDS011;66835;49.478;10.724;2024-02-26T03:23:41;11.98;;;6.13;;
77678;SDS011;66835;49.478;10.724;2024-02-26T03:26:06;11.00;;;6.00;;
77678;SDS011;66835;49.478;10.724;2024-02-26T03:28:35;12.73;;;6.32;;
77678;SDS011;66835;49.478;10.724;2024-02-26T03:31:00;11.63;;;6.38;;
77678;SDS011;66835;49.478;10.724;2024-02-26T03:33:27;11.75;;;5.93;;
77678;SDS011;66835;49.478;10.724;2024-02-26T03:35:52;11.02;;;6.40;;
77678;SDS011;66835;49.478;10.724;2024-02-26T03:38:18;14.60;;;6.43;;
77678;SDS011;66835;49.478;10.724;2024-02-26T03:40:43;14.10;;;6.57;;
77678;SDS011;66835;49.478;10.724;2024-02-26T03:43:08;13.68;;;7.55;;
77678;SDS011;66835;49.478;10.724;2024-02-26T03:45:35;12.32;;;6.32;;
77678;SDS011;66835;49.478;10.724;2024-02-26T03:48:00;13.18;;;6.93;;
77678;SDS011;66835;49.478;10.724;2024-02-26T03:50:26;13.97;;;6.73;;
77678;SDS011;66835;49.478;10.724;2024-02-26T03:52:51;14.20;;;7.10;;
77678;SDS011;66835;49.478;10.724;2024-02-26T03:55:16;16.92;;;7.50;;
77678;SDS011;66835;49.478;10.724;2024-02-26T03:57:46;16.92;;;8.00;;
77678;SDS011;66835;49.478;10.724;2024-02-26T04:00:12;16.95;;;8.07;;
77678;SDS011;66835;49.478;10.724;2024-02-26T04:02:39;14.40;;;6.95;;
77678;SDS011;66835;49.478;10.724;2024-02-26T04:05:05;15.80;;;7.07;;
77678;SDS011;66835;49.478;10.724;2024-02-26T04:07:33;16.05;;;8.70;;
77678;SDS011;66835;49.478;10.724;2024-02-26T04:09:59;15.67;;;7.17;;
77678;SDS011;66835;49.478;10.724;2024-02-26T04:12:24;15.55;;;8.98;;
77678;SDS011;66835;49.478;10.724;2024-02-26T04:14:50;15.77;;;6.93;;
77678;SDS011;66835;49.478;10.724;2024-02-26T04:17:15;15.50;;;7.63;;
77678;SDS011;66835;49.478;10.724;2024-02-26T04:19:42;15.77;;;7.53;;
77678;SDS011;66835;49.478;10.724;2024-02-26T04:22:07;13.90;;;7.30;;
77678;SDS011;66835;49.478;10.724;2024-02-26T04:24:32;14.48;;;6.53;;
77678;SDS011;66835;49.478;10.724;2024-02-26T04:26:58;15.68;;;7.22;;
77678;SDS011;66835;49.478;10.724;2024-02-26T04:29:23;14.88;;;8.30;;
77678;SDS011;66835;49.478;10.724;2024-02-26T04:31:49;17.60;;;7.13;;
77678;SDS011;66835;49.478;10.724;2024-02-26T04:34:14;15.03;;;7.53;;
77678;SDS011;66835;49.478;10.724;2024-02-26T04:36:41;16.65;;;7.53;;
77678;SDS011;66835;49.478;10.724;2024-02-26T04:39:07;12.30;;;6.80;;
77678;SDS011;66835;49.478;10.724;2024-02-26T04:41:32;16.80;;;8.02;;
77678;SDS011;66835;49.478;10.724;2024-02-26T04:43:58;18.63;;;8.30;;
77678;SDS011;66835;49.478;10.724;2024-02-26T04:46:23;15.60;;;7.30;;
77678;SDS011;66835;49.478;10.724;2024-02-26T04:48:48;14.23;;;6.50;;
77678;SDS011;66835;49.478;10.724;2024-02-26T04:51:14;13.10;;;7.13;;
77678;SDS011;66835;49.478;10.724;2024-02-26T04:53:41;14.15;;;7.30;;
77678;SDS011;66835;49.478;10.724;2024-02-26T04:56:06;17.17;;;7.40;;
77678;SDS011;66835;49.478;10.724;2024-02-26T04:58:31;14.23;;;7.63;;
77678;SDS011;66835;49.478;10.724;2024-02-26T05:00:57;14.57;;;7.65;;
77678;SDS011;66835;49.478;10.724;2024-02-26T05:03:22;18.30;;;9.20;;
77678;SDS011;66835;49.478;10.724;2024-02-26T05:05:47;16.80;;;8.53;;
77678;SDS011;66835;49.478;10.724;2024-02-26T05:08:13;17.85;;;8.60;;
77678;SDS011;66835;49.478;10.724;2024-02-26T05:10:40;18.65;;;8.90;;
77678;SDS011;66835;49.478;10.724;2024-02-26T05:13:06;22.23;;;9.70;;
77678;SDS011;66835;49.478;10.724;2024-02-26T05:15:31;17.23;;;9.55;;
77678;SDS011;66835;49.478;10.724;2024-02-26T05:17:57;15.20;;;8.95;;
77678;SDS011;66835;49.478;10.724;2024-02-26T05:20:22;21.83;;;9.75;;
77678;SDS011;66835;49.478;10.724;2024-02-26T05:22:48;19.53;;;9.20;;
77678;SDS011;66835;49.478;10.724;2024-02-26T05:25:14;18.23;;;8.75;;
77678;SDS011;66835;49.478;10.724;2024-02-26T05:27:42;19.15;;;9.88;;
77678;SDS011;66835;49.478;10.724;2024-02-26T05:30:08;20.02;;;10.57;;
77678;SDS011;66835;49.478;10.724;2024-02-26T05:32:34;19.05;;;9.93;;
77678;SDS011;66835;49.478;10.724;2024-02-26T05:35:00;28.02;;;10.80;;
77678;SDS011;66835;49.478;10.724;2024-02-26T05:37:25;18.42;;;9.80;;
77678;SDS011;66835;49.478;10.724;2024-02-26T05:39:51;19.63;;;10.38;;
77678;SDS011;66835;49.478;10.724;2024-02-26T05:42:17;20.58;;;10.13;;
77678;SDS011;66835;49.478;10.724;2024-02-26T05:44:43;20.50;;;10.98;;
77678;SDS011;66835;49.478;10.724;2024-02-26T05:47:09;22.75;;;10.90;;
77678;SDS011;66835;49.478;10.724;2024-02-26T05:49:35;23.75;;;9.57;;
77678;SDS011;66835;49.478;10.724;2024-02-26T05:52:00;19.02;;;8.60;;
77678;SDS011;66835;49.478;10.724;2024-02-26T05:54:25;20.88;;;9.43;;
77678;SDS011;66835;49.478;10.724;2024-02-26T05:56:51;19.43;;;9.30;;
77678;SDS011;66835;49.478;10.724;2024-02-26T05:59:16;17.25;;;8.55;;
77678;SDS011;66835;49.478;10.724;2024-02-26T06:01:43;18.42;;;8.75;;
77678;SDS011;66835;49.478;10.724;2024-02-26T06:04:09;18.33;;;8.65;;
77678;SDS011;66835;49.478;10.724;2024-02-26T06:06:34;17.70;;;8.70;;
77678;SDS011;66835;49.478;10.724;2024-02-26T06:09:00;15.77;;;7.45;;
77678;SDS011;66835;49.478;10.724;2024-02-26T06:11:25;16.40;;;7.57;;
77678;SDS011;66835;49.478;10.724;2024-02-26T06:13:50;19.20;;;9.37;;
77678;SDS011;66835;49.478;10.724;2024-02-26T06:16:16;21.03;;;8.90;;
77678;SDS011;66835;49.478;10.724;2024-02-26T06:18:42;17.83;;;9.07;;
77678;SDS011;66835;49.478;10.724;2024-02-26T06:21:09;18.20;;;8.45;;
77678;SDS011;66835;49.478;10.724;2024-02-26T06:23:34;14.98;;;8.20;;
77678;SDS011;66835;49.478;10.724;2024-02-26T06:26:00;30.50;;;12.90;;
77678;SDS011;66835;49.478;10.724;2024-02-26T06:28:25;18.90;;;9.40;;
77678;SDS011;66835;49.478;10.724;2024-02-26T06:30:51;18.45;;;9.27;;
77678;SDS011;66835;49.478;10.724;2024-02-26T06:33:17;17.63;;;9.02;;
77678;SDS011;66835;49.478;10.724;2024-02-26T06:35:44;28.58;;;13.63;;
77678;SDS011;66835;49.478;10.724;2024-02-26T06:38:09;17.73;;;8.10;;
77678;SDS011;66835;49.478;10.724;2024-02-26T06:40:36;24.15;;;9.98;;
77678;SDS011;66835;49.478;10.724;2024-02-26T06:43:02;16.15;;;8.20;;
77678;SDS011;66835;49.478;10.724;2024-02-26T06:45:27;17.85;;;9.10;;
77678;SDS011;66835;49.478;10.724;2024-02-26T06:47:52;14.43;;;7.87;;
77678;SDS011;66835;49.478;10.724;2024-02-26T06:50:18;18.15;;;8.35;;
77678;SDS011;66835;49.478;10.724;2024-02-26T06:52:45;19.80;;;9.43;;
77678;SDS011;66835;49.478;10.724;2024-02-26T06:55:11;17.80;;;8.85;;
77678;SDS011;66835;49.478;10.724;2024-02-26T06:57:37;19.25;;;9.65;;
77678;SDS011;66835;49.478;10.724;2024-02-26T07:00:03;18.45;;;9.85;;
77678;SDS011;66835;49.478;10.724;2024-02-26T07:02:29;18.55;;;8.95;;
77678;SDS011;66835;49.478;10.724;2024-02-26T07:04:54;15.13;;;8.45;;
77678;SDS011;66835;49.478;10.724;2024-02-26T07:07:21;18.05;;;8.88;;
77678;SDS011;66835;49.478;10.724;2024-02-26T07:09:48;18.38;;;8.65;;
77678;SDS011;66835;49.478;10.724;2024-02-26T07:12:14;15.63;;;8.27;;
77678;SDS011;66835;49.478;10.724;2024-02-26T07:14:41;17.90;;;9.05;;
77678;SDS011;66835;49.478;10.724;2024-02-26T07:17:06;18.92;;;8.68;;
77678;SDS011;66835;49.478;10.724;2024-02-26T07:19:31;18.47;;;8.97;;
77678;SDS011;66835;49.478;10.724;2024-02-26T07:21:57;15.05;;;8.77;;
77678;SDS011;66835;49.478;10.724;2024-02-26T07:24:22;17.00;;;7.97;;
77678;SDS011;66835;49.478;10.724;2024-02-26T07:26:49;17.23;;;8.45;;
77678;SDS011;66835;49.478;10.724;2024-02-26T07:29:14;19.77;;;10.43;;
77678;SDS011;66835;49.478;10.724;2024-02-26T07:31:40;16.85;;;8.63;;
77678;SDS011;66835;49.478;10.724;2024-02-26T07:34:05;16.25;;;8.32;;
77678;SDS011;66835;49.478;10.724;2024-02-26T07:36:31;18.33;;;8.73;;
77678;SDS011;66835;49.478;10.724;2024-02-26T07:38:56;15.13;;;8.33;;
77678;SDS011;66835;49.478;10.724;2024-02-26T07:41:21;18.37;;;8.63;;
77678;SDS011;66835;49.478;10.724;2024-02-26T07:43:48;17.03;;;8.30;;
77678;SDS011;66835;49.478;10.724;2024-02-26T07:46:14;15.73;;;8.77;;
77678;SDS011;66835;49.478;10.724;2024-02-26T07:48:39;19.30;;;9.48;;
77678;SDS011;66835;49.478;10.724;2024-02-26T07:51:04;21.35;;;9.07;;
77678;SDS011;66835;49.478;10.724;2024-02-26T07:53:30;16.88;;;8.70;;
77678;SDS011;66835;49.478;10.724;2024-02-26T07:55:55;17.05;;;8.98;;
77678;SDS011;66835;49.478;10.724;2024-02-26T07:58:21;14.20;;;8.30;;
77678;SDS011;66835;49.478;10.724;2024-02-26T08:00:48;17.98;;;8.75;;
77678;SDS011;66835;49.478;10.724;2024-02-26T08:03:14;16.63;;;9.30;;
77678;SDS011;66835;49.478;10.724;2024-02-26T08:05:40;19.00;;;8.57;;
77678;SDS011;66835;49.478;10.724;2024-02-26T08:08:07;14.27;;;9.35;;
77678;SDS011;66835;49.478;10.724;2024-02-26T08:10:33;18.48;;;8.65;;
77678;SDS011;66835;49.478;10.724;2024-02-26T08:12:58;15.00;;;7.30;;
77678;SDS011;66835;49.478;10.724;2024-02-26T08:15:30;18.50;;;9.07;;
77678;SDS011;66835;49.478;10.724;2024-02-26T08:17:56;19.60;;;9.40;;
77678;SDS011;66835;49.478;10.724;2024-02-26T08:20:22;30.70;;;13.90;;
77678;SDS011;66835;49.478;10.724;2024-02-26T08:22:47;39.33;;;17.30;;
77678;SDS011;66835;49.478;10.724;2024-02-26T08:25:14;31.60;;;13.20;;
77678;SDS011;66835;49.478;10.724;2024-02-26T08:27:41;23.33;;;9.68;;
77678;SDS011;66835;49.478;10.724;2024-02-26T08:30:07;15.20;;;8.43;;
77678;SDS011;66835;49.478;10.724;2024-02-26T08:32:32;15.77;;;8.00;;
77678;SDS011;66835;49.478;10.724;2024-02-26T08:34:59;22.95;;;10.07;;
77678;SDS011;66835;49.478;10.724;2024-02-26T08:37:25;20.02;;;9.65;;
77678;SDS011;66835;49.478;10.724;2024-02-26T08:39:50;19.80;;;9.18;;
77678;SDS011;66835;49.478;10.724;2024-02-26T08:42:16;17.20;;;9.07;;
77678;SDS011;66835;49.478;10.724;2024-02-26T08:44:41;17.77;;;8.90;;
77678;SDS011;66835;49.478;10.724;2024-02-26T08:47:07;16.13;;;8.32;;
77678;SDS011;66835;49.478;10.724;2024-02-26T08:49:32;13.25;;;6.82;;
77678;SDS011;66835;49.478;10.724;2024-02-26T08:51:59;11.63;;;6.28;;
77678;SDS011;66835;49.478;10.724;2024-02-26T08:54:24;12.15;;;6.70;;
77678;SDS011;66835;49.478;10.724;2024-02-26T08:56:49;11.90;;;6.60;;
77678;SDS011;66835;49.478;10.724;2024-02-26T08:59:15;15.03;;;6.97;;
77678;SDS011;66835;49.478;10.724;2024-02-26T09:01:41;15.10;;;6.65;;
77678;SDS011;66835;49.478;10.724;2024-02-26T09:04:06;13.50;;;6.30;;
77678;SDS011;66835;49.478;10.724;2024-02-26T09:06:32;11.95;;;6.28;;
77678;SDS011;66835;49.478;10.724;2024-02-26T09:08:59;13.05;;;6.50;;
77678;SDS011;66835;49.478;10.724;2024-02-26T09:11:24;11.35;;;5.50;;
77678;SDS011;66835;49.478;10.724;2024-02-26T09:13:49;11.70;;;6.00;;
77678;SDS011;66835;49.478;10.724;2024-02-26T09:16:15;12.68;;;6.13;;
77678;SDS011;66835;49.478;10.724;2024-02-26T09:18:41;13.05;;;6.43;;
77678;SDS011;66835;49.478;10.724;2024-02-26T09:21:06;8.98;;;4.82;;
77678;SDS011;66835;49.478;10.724;2024-02-26T09:23:31;12.07;;;5.75;;
77678;SDS011;66835;49.478;10.724;2024-02-26T09:25:59;11.98;;;5.75;;
77678;SDS011;66835;49.478;10.724;2024-02-26T09:28:24;11.13;;;6.40;;
77678;SDS011;66835;49.478;10.724;2024-02-26T09:30:49;13.67;;;6.23;;
77678;SDS011;66835;49.478;10.724;2024-02-26T09:33:16;9.45;;;5.25;;
77678;SDS011;66835;49.478;10.724;2024-02-26T09:35:41;11.95;;;5.32;;
77678;SDS011;66835;49.478;10.724;2024-02-26T09:38:07;11.18;;;5.82;;
77678;SDS011;66835;49.478;10.724;2024-02-26T09:40:32;12.15;;;5.40;;
77678;SDS011;66835;49.478;10.724;2024-02-26T09:43:00;10.57;;;5.13;;
77678;SDS011;66835;49.478;10.724;2024-02-26T09:45:26;14.05;;;4.85;;
77678;SDS011;66835;49.478;10.724;2024-02-26T09:47:53;10.07;;;5.40;;
77678;SDS011;66835;49.478;10.724;2024-02-26T09:50:20;8.57;;;5.18;;
77678;SDS011;66835;49.478;10.724;2024-02-26T09:52:47;8.35;;;4.72;;
77678;SDS011;66835;49.478;10.724;2024-02-26T09:55:13;8.57;;;4.90;;
77678;SDS011;66835;49.478;10.724;2024-02-26T09:57:38;8.70;;;3.95;;
77678;SDS011;66835;49.478;10.724;2024-02-26T10:00:12;7.30;;;3.75;;
77678;SDS011;66835;49.478;10.724;2024-02-26T10:02:40;8.80;;;3.83;;
77678;SDS011;66835;49.478;10.724;2024-02-26T10:05:07;8.85;;;3.45;;
77678;SDS011;66835;49.478;10.724;2024-02-26T10:07:35;6.97;;;3.25;;
77678;SDS011;66835;49.478;10.724;2024-02-26T10:10:01;8.02;;;4.03;;
77678;SDS011;66835;49.478;10.724;2024-02-26T10:12:26;7.82;;;3.25;;
77678;SDS011;66835;49.478;10.724;2024-02-26T10:14:53;8.18;;;3.42;;
77678;SDS011;66835;49.478;10.724;2024-02-26T10:17:20;7.72;;;3.40;;
77678;SDS011;66835;49.478;10.724;2024-02-26T10:19:46;6.05;;;3.53;;
77678;SDS011;66835;49.478;10.724;2024-02-26T10:22:11;7.60;;;3.70;;
77678;SDS011;66835;49.478;10.724;2024-02-26T10:24:36;6.57;;;3.45;;
77678;SDS011;66835;49.478;10.724;2024-02-26T10:27:02;10.77;;;4.60;;
77678;SDS011;66835;49.478;10.724;2024-02-26T10:29:28;6.93;;;3.97;;
77678;SDS011;66835;49.478;10.724;2024-02-26T10:31:53;6.88;;;3.70;;
77678;SDS011;66835;49.478;10.724;2024-02-26T10:34:20;8.65;;;3.97;;
77678;SDS011;66835;49.478;10.724;2024-02-26T10:36:46;8.18;;;3.90;;
77678;SDS011;66835;49.478;10.724;2024-02-26T10:39:12;6.70;;;3.53;;
77678;SDS011;66835;49.478;10.724;2024-02-26T10:41:38;7.93;;;3.08;;
77678;SDS011;66835;49.478;10.724;2024-02-26T10:44:05;8.30;;;2.97;;
77678;SDS011;66835;49.478;10.724;2024-02-26T10:46:30;8.68;;;3.45;;
77678;SDS011;66835;49.478;10.724;2024-02-26T10:48:56;7.20;;;3.50;;
77678;SDS011;66835;49.478;10.724;2024-02-26T10:51:26;8.70;;;3.47;;
77678;SDS011;66835;49.478;10.724;2024-02-26T10:53:54;6.50;;;2.92;;
77678;SDS011;66835;49.478;10.724;2024-02-26T10:56:21;8.40;;;4.00;;
77678;SDS011;66835;49.478;10.724;2024-02-26T10:58:50;7.22;;;4.28;;
77678;SDS011;66835;49.478;10.724;2024-02-26T11:01:16;7.82;;;3.97;;
77678;SDS011;66835;49.478;10.724;2024-02-26T11:03:41;7.80;;;3.83;;
77678;SDS011;66835;49.478;10.724;2024-02-26T11:06:06;9.18;;;4.32;;
77678;SDS011;66835;49.478;10.724;2024-02-26T11:08:34;7.82;;;3.80;;
77678;SDS011;66835;49.478;10.724;2024-02-26T11:11:00;8.00;;;4.68;;
77678;SDS011;66835;49.478;10.724;2024-02-26T11:13:26;7.65;;;4.15;;
77678;SDS011;66835;49.478;10.724;2024-02-26T11:15:55;8.85;;;4.15;;
77678;SDS011;66835;49.478;10.724;2024-02-26T11:18:22;7.20;;;3.67;;
77678;SDS011;66835;49.478;10.724;2024-02-26T11:20:48;7.15;;;3.50;;
77678;SDS011;66835;49.478;10.724;2024-02-26T11:23:14;7.72;;;3.65;;
77678;SDS011;66835;49.478;10.724;2024-02-26T11:25:41;7.70;;;3.72;;
77678;SDS011;66835;49.478;10.724;2024-02-26T11:28:08;7.43;;;3.50;;
77678;SDS011;66835;49.478;10.724;2024-02-26T11:30:36;7.57;;;3.83;;
77678;SDS011;66835;49.478;10.724;2024-02-26T11:33:06;8.55;;;3.60;;
77678;SDS011;66835;49.478;10.724;2024-02-26T11:35:33;7.78;;;3.88;;
77678;SDS011;66835;49.478;10.724;2024-02-26T11:37:59;7.57;;;3.95;;
77678;SDS011;66835;49.478;10.724;2024-02-26T11:40:26;7.38;;;3.53;;
77678;SDS011;66835;49.478;10.724;2024-02-26T11:42:53;7.47;;;3.83;;
77678;SDS011;66835;49.478;10.724;2024-02-26T11:48:14;8.50;;;4.10;;
77678;SDS011;66835;49.478;10.724;2024-02-26T11:50:40;8.32;;;3.88;;
77678;SDS011;66835;49.478;10.724;2024-02-26T11:53:19;7.32;;;3.90;;
77678;SDS011;66835;49.478;10.724;2024-02-26T11:55:46;9.00;;;3.67;;
77678;SDS011;66835;49.478;10.724;2024-02-26T11:58:12;7.20;;;3.08;;
77678;SDS011;66835;49.478;10.724;2024-02-26T12:00:39;7.50;;;3.65;;
77678;SDS011;66835;49.478;10.724;2024-02-26T12:03:04;7.88;;;3.13;;
77678;SDS011;66835;49.478;10.724;2024-02-26T12:05:33;5.95;;;2.90;;
77678;SDS011;66835;49.478;10.724;2024-02-26T12:07:59;7.40;;;3.65;;
77678;SDS011;66835;49.478;10.724;2024-02-26T12:10:27;8.25;;;3.03;;
77678;SDS011;66835;49.478;10.724;2024-02-26T12:12:54;7.68;;;3.00;;
77678;SDS011;66835;49.478;10.724;2024-02-26T12:15:24;5.90;;;3.25;;
77678;SDS011;66835;49.478;10.724;2024-02-26T12:17:51;6.38;;;3.05;;
77678;SDS011;66835;49.478;10.724;2024-02-26T12:20:17;5.55;;;3.03;;
77678;SDS011;66835;49.478;10.724;2024-02-26T12:22:44;10.27;;;4.00;;
77678;SDS011;66835;49.478;10.724;2024-02-26T12:25:10;6.75;;;3.30;;
77678;SDS011;66835;49.478;10.724;2024-02-26T12:27:36;6.00;;;2.92;;
77678;SDS011;66835;49.478;10.724;2024-02-26T12:30:01;5.38;;;2.80;;
77678;SDS011;66835;49.478;10.724;2024-02-26T12:32:29;5.97;;;3.00;;
77678;SDS011;66835;49.478;10.724;2024-02-26T12:34:55;5.70;;;2.58;;
77678;SDS011;66835;49.478;10.724;2024-02-26T12:37:21;7.78;;;3.13;;
77678;SDS011;66835;49.478;10.724;2024-02-26T12:39:47;6.15;;;3.17;;
77678;SDS011;66835;49.478;10.724;2024-02-26T12:42:12;6.88;;;3.42;;
77678;SDS011;66835;49.478;10.724;2024-02-26T12:44:39;7.57;;;3.47;;
77678;SDS011;66835;49.478;10.724;2024-02-26T12:47:05;6.80;;;3.30;;
77678;SDS011;66835;49.478;10.724;2024-02-26T12:49:31;8.02;;;3.17;;
77678;SDS011;66835;49.478;10.724;2024-02-26T12:51:57;6.45;;;2.80;;
77678;SDS011;66835;49.478;10.724;2024-02-26T12:54:26;6.53;;;3.35;;
77678;SDS011;66835;49.478;10.724;2024-02-26T12:56:52;8.55;;;3.60;;
77678;SDS011;66835;49.478;10.724;2024-02-26T12:59:17;6.10;;;3.40;;
77678;SDS011;66835;49.478;10.724;2024-02-26T13:01:43;5.15;;;2.60;;
77678;SDS011;66835;49.478;10.724;2024-02-26T13:04:08;7.72;;;3.45;;
77678;SDS011;66835;49.478;10.724;2024-02-26T13:06:36;7.60;;;3.78;;
77678;SDS011;66835;49.478;10.724;2024-02-26T13:09:02;6.10;;;2.85;;
77678;SDS011;66835;49.478;10.724;2024-02-26T13:11:28;6.70;;;2.60;;
77678;SDS011;66835;49.478;10.724;2024-02-26T13:13:54;7.28;;;3.22;;
77678;SDS011;66835;49.478;10.724;2024-02-26T13:16:19;7.05;;;3.20;;
77678;SDS011;66835;49.478;10.724;2024-02-26T13:18:44;7.13;;;3.47;;
77678;SDS011;66835;49.478;10.724;2024-02-26T13:21:11;5.90;;;3.08;;
77678;SDS011;66835;49.478;10.724;2024-02-26T13:23:39;8.20;;;3.75;;
77678;SDS011;66835;49.478;10.724;2024-02-26T13:26:05;9.52;;;4.90;;
77678;SDS011;66835;49.478;10.724;2024-02-26T13:28:31;8.55;;;4.22;;
77678;SDS011;66835;49.478;10.724;2024-02-26T13:30:57;10.68;;;5.63;;
77678;SDS011;66835;49.478;10.724;2024-02-26T13:33:24;13.60;;;5.70;;
77678;SDS011;66835;49.478;10.724;2024-02-26T13:35:53;13.93;;;6.32;;
77678;SDS011;66835;49.478;10.724;2024-02-26T13:38:19;6.95;;;4.00;;
77678;SDS011;66835;49.478;10.724;2024-02-26T13:40:46;6.93;;;3.67;;
77678;SDS011;66835;49.478;10.724;2024-02-26T13:43:11;7.55;;;3.85;;
77678;SDS011;66835;49.478;10.724;2024-02-26T13:45:37;6.05;;;2.90;;
77678;SDS011;66835;49.478;10.724;2024-02-26T13:48:03;7.75;;;3.40;;
77678;SDS011;66835;49.478;10.724;2024-02-26T13:50:29;7.63;;;3.35;;
77678;SDS011;66835;49.478;10.724;2024-02-26T13:52:55;4.75;;;2.88;;
77678;SDS011;66835;49.478;10.724;2024-02-26T13:55:21;6.05;;;2.80;;
77678;SDS011;66835;49.478;10.724;2024-02-26T13:57:49;5.53;;;2.78;;
77678;SDS011;66835;49.478;10.724;2024-02-26T14:00:17;6.25;;;2.80;;
77678;SDS011;66835;49.478;10.724;2024-02-26T14:02:43;5.82;;;2.70;;
77678;SDS011;66835;49.478;10.724;2024-02-26T14:05:08;5.30;;;2.83;;
77678;SDS011;66835;49.478;10.724;2024-02-26T14:07:34;6.55;;;2.78;;
77678;SDS011;66835;49.478;10.724;2024-02-26T14:09:59;8.35;;;3.85;;
77678;SDS011;66835;49.478;10.724;2024-02-26T14:12:25;9.25;;;4.63;;
77678;SDS011;66835;49.478;10.724;2024-02-26T14:14:52;10.87;;;4.70;;
77678;SDS011;66835;49.478;10.724;2024-02-26T14:17:19;7.85;;;4.25;;
77678;SDS011;66835;49.478;10.724;2024-02-26T14:19:44;8.90;;;3.60;;
77678;SDS011;66835;49.478;10.724;2024-02-26T14:22:10;7.53;;;3.65;;